Time;durP1;ratioP1;P1;durP2;ratioP2;P2;SDS_P1;SDS_P2;PMS_P1;PMS_P2;Temp;Humidity;BMP_temperature;BMP_pressure;BME280_temperature;BME280_humidity;BME280_pressure;Samples;Min_cycle;Max_cycle;Signal;HPM_P1;HPM_P2
2023/04/06 00:01:10;;;;;;;;;25.25;24.75;;;;;-147.17;100.00;49983.78;5009413;28;51279;-55
2023/04/06 00:03:37;;;;;;;;;26.75;26.00;;;;;-147.17;100.00;50011.34;5011178;28;51715;-54
2023/04/06 00:06:03;;;;;;;;;26.25;25.00;;;;;-147.17;100.00;49983.78;5012578;28;50957;-53
2023/04/06 00:08:28;;;;;;;;;24.75;23.00;;;;;-147.17;100.00;50009.38;5003886;28;52054;-55
2023/04/06 00:10:54;;;;;;;;;23.50;22.00;;;;;-147.17;100.00;49975.91;5009351;28;51039;-55
2023/04/06 00:13:20;;;;;;;;;21.50;20.75;;;;;-147.17;100.00;49966.06;5009492;28;51180;-55
2023/04/06 00:15:45;;;;;;;;;24.00;22.75;;;;;-147.17;100.00;49962.13;5011201;28;50944;-54
2023/04/06 00:18:11;;;;;;;;;30.00;26.75;;;;;-147.17;100.00;49958.19;5011277;28;51650;-54
2023/04/06 00:20:36;;;;;;;;;23.25;23.00;;;;;-147.17;100.00;49914.91;5011331;28;51187;-53
2023/04/06 00:23:02;;;;;;;;;28.25;24.50;;;;;-147.17;100.00;49891.28;5011606;28;50957;-54
2023/04/06 00:25:27;;;;;;;;;23.50;22.50;;;;;-147.17;100.00;49889.31;5011934;28;51241;-55
2023/04/06 00:27:52;;;;;;;;;22.75;22.25;;;;;-147.17;100.00;49840.09;5012251;28;51738;-54
2023/04/06 00:30:18;;;;;;;;;28.50;26.00;;;;;-147.17;100.00;49832.22;5009871;28;51137;-54
2023/04/06 00:32:43;;;;;;;;;25.75;24.00;;;;;-147.17;100.00;49844.03;4989925;28;53508;-51
2023/04/06 00:35:09;;;;;;;;;23.50;22.00;;;;;-147.17;100.00;49802.69;5009845;28;51150;-53
2023/04/06 00:37:34;;;;;;;;;23.25;22.50;;;;;-147.17;100.00;49755.47;5010185;28;51861;-57
2023/04/06 00:40:00;;;;;;;;;22.75;21.75;;;;;-147.17;100.00;49716.09;5011557;28;51035;-54
2023/04/06 00:42:25;;;;;;;;;22.50;21.50;;;;;-147.17;100.00;49718.06;5010332;28;51219;-54
2023/04/06 00:44:53;;;;;;;;;26.00;25.00;;;;;-147.17;100.00;49678.69;5009351;28;51453;-53
2023/04/06 00:47:18;;;;;;;;;24.75;23.00;;;;;-147.17;100.00;49659.03;5011225;28;51103;-52
2023/04/06 00:49:44;;;;;;;;;25.75;24.00;;;;;-147.17;100.00;49657.06;5009798;28;51017;-55
2023/04/06 00:52:10;;;;;;;;;20.25;19.25;;;;;-147.17;100.00;49657.06;5011643;28;50881;-54
2023/04/06 00:54:36;;;;;;;;;41.00;34.75;;;;;-147.17;100.00;49590.13;5010610;28;51149;-55
2023/04/06 00:57:01;;;;;;;;;26.75;25.00;;;;;-147.17;100.00;49556.66;5003391;28;52612;-56
2023/04/06 00:59:29;;;;;;;;;22.00;21.00;;;;;-147.17;100.00;49525.19;5011569;28;51047;-54
2023/04/06 01:01:55;;;;;;;;;24.25;23.50;;;;;-147.17;100.00;49493.69;5000053;28;51207;-54
2023/04/06 01:04:22;;;;;;;;;20.00;20.00;;;;;-147.17;100.00;49509.44;5009085;28;51869;-54
2023/04/06 01:06:50;;;;;;;;;24.75;23.75;;;;;-147.17;100.00;49472.03;5012568;28;51221;-54
2023/04/06 01:09:17;;;;;;;;;22.50;22.50;;;;;-147.17;100.00;49464.16;5015066;28;51075;-55
2023/04/06 01:11:43;;;;;;;;;25.00;23.00;;;;;-147.17;100.00;49422.84;5009923;28;51091;-53
2023/04/06 01:14:08;;;;;;;;;28.00;24.75;;;;;-147.17;100.00;49397.25;5012421;28;51514;-53
2023/04/06 01:16:34;;;;;;;;;23.75;22.50;;;;;-147.17;100.00;49350.03;5014459;28;51296;-55
2023/04/06 01:19:00;;;;;;;;;27.25;26.75;;;;;-147.17;100.00;49269.34;5014893;28;51057;-55
2023/04/06 01:21:26;;;;;;;;;29.50;28.00;;;;;-147.17;100.00;49296.88;5012463;28;51168;-54
2023/04/06 01:23:51;;;;;;;;;24.00;22.50;;;;;-147.17;100.00;49245.72;5013976;28;51438;-55
2023/04/06 01:26:17;;;;;;;;;25.75;23.25;;;;;-147.17;100.00;49226.03;5013341;28;50941;-55
2023/04/06 01:28:44;;;;;;;;;28.75;26.50;;;;;-147.17;100.00;49186.69;5015464;28;51023;-55
2023/04/06 01:31:10;;;;;;;;;27.25;26.50;;;;;-147.17;100.00;49167.00;5013213;28;51162;-55
2023/04/06 01:33:36;;;;;;;;;28.75;25.50;;;;;-147.17;100.00;49167.00;5014583;28;52139;-55
2023/04/06 01:36:03;;;;;;;;;22.75;21.25;;;;;-147.17;100.00;49133.53;5012986;28;51079;-53
2023/04/06 01:38:28;;;;;;;;;23.25;22.00;;;;;-147.17;100.00;49092.22;5010870;28;51162;-54
2023/04/06 01:40:54;;;;;;;;;27.00;26.50;;;;;-147.17;100.00;49029.25;5013001;28;51253;-53
2023/04/06 01:43:20;;;;;;;;;27.75;23.75;;;;;-147.17;100.00;49027.28;5012456;28;51433;-54
2023/04/06 01:45:45;;;;;;;;;23.00;22.50;;;;;-147.17;100.00;48985.94;5014182;28;51690;-52
2023/04/06 01:48:11;;;;;;;;;28.50;27.00;;;;;-147.17;100.00;48972.16;5014554;28;50972;-53
2023/04/06 01:50:36;;;;;;;;;26.75;25.25;;;;;-147.17;100.00;48879.69;5012147;28;50945;-53
2023/04/06 01:53:02;;;;;;;;;29.25;26.25;;;;;-147.17;100.00;48907.22;5014109;28;52977;-55
2023/04/06 01:55:27;;;;;;;;;32.25;31.00;;;;;-147.17;100.00;48879.69;5004484;28;51086;-53
2023/04/06 01:57:52;;;;;;;;;26.50;24.25;;;;;-147.17;100.00;48751.78;5010354;28;51062;-52
2023/04/06 02:00:18;;;;;;;;;26.25;25.25;;;;;-147.17;100.00;48777.34;5013350;28;50940;-54
2023/04/06 02:02:44;;;;;;;;;28.00;27.25;;;;;-147.17;100.00;48667.16;5012957;28;51259;-53
2023/04/06 02:05:09;;;;;;;;;29.25;27.25;;;;;-147.17;100.00;48698.66;5009294;28;51887;-54
2023/04/06 02:07:35;;;;;;;;;23.25;21.75;;;;;-147.17;100.00;48623.88;5011063;28;51128;-52
2023/04/06 02:10:00;;;;;;;;;30.25;29.75;;;;;-147.17;100.00;48482.19;5013034;28;51193;-53
2023/04/06 02:12:26;;;;;;;;;28.75;26.50;;;;;-147.17;100.00;48442.84;5010222;28;51836;-52
2023/04/06 02:14:51;;;;;;;;;30.00;28.00;;;;;-147.17;100.00;48387.75;5012940;28;51072;-53
2023/04/06 02:17:17;;;;;;;;;29.25;27.25;;;;;-147.17;100.00;48372.03;5012693;28;51166;-53
2023/04/06 02:19:42;;;;;;;;;29.75;28.00;;;;;-147.17;100.00;48360.22;5013679;28;51482;-53
2023/04/06 02:22:07;;;;;;;;;30.25;28.00;;;;;-147.17;100.00;48293.31;5013960;28;51195;-53
2023/04/06 02:24:32;;;;;;;;;28.75;27.75;;;;;-147.17;100.00;48277.56;5013180;28;53430;-53
2023/04/06 02:26:58;;;;;;;;;22.25;20.50;;;;;-147.17;100.00;48230.34;5012469;28;51138;-52
2023/04/06 02:29:23;;;;;;;;;29.25;28.25;;;;;-147.17;100.00;48263.81;5011818;28;51166;-55
2023/04/06 02:31:49;;;;;;;;;30.00;27.25;;;;;-147.17;100.00;48257.91;5007613;28;51261;-53
2023/04/06 02:34:17;;;;;;;;;30.00;28.50;;;;;-147.17;100.00;48183.13;5013220;28;52935;-53
2023/04/06 02:36:44;;;;;;;;;30.50;28.00;;;;;-147.17;100.00;48242.16;5010231;28;51123;-52
2023/04/06 02:39:10;;;;;;;;;29.25;26.75;;;;;-147.17;100.00;48309.06;5012556;28;51111;-53
2023/04/06 02:41:35;;;;;;;;;31.25;28.00;;;;;-147.17;100.00;48330.69;5013153;28;52486;-54
2023/04/06 02:44:01;;;;;;;;;27.75;27.75;;;;;-147.17;100.00;48259.88;5012797;28;51894;-53
2023/04/06 02:46:26;;;;;;;;;28.25;28.00;;;;;-147.17;100.00;48275.59;5012332;28;50983;-54
2023/04/06 02:48:51;;;;;;;;;25.00;24.50;;;;;-147.17;100.00;48279.53;5012972;28;52183;-55
2023/04/06 02:51:17;;;;;;;;;26.75;25.50;;;;;-147.17;100.00;48277.56;5013777;28;51087;-55
2023/04/06 02:53:42;;;;;;;;;27.75;26.50;;;;;-147.17;100.00;48295.28;5012728;28;51134;-53
2023/04/06 02:56:07;;;;;;;;;27.00;25.25;;;;;-147.17;100.00;48246.09;5005947;28;51283;-53
2023/04/06 02:58:33;;;;;;;;;29.00;27.00;;;;;-147.17;100.00;48196.91;5012842;28;51102;-53
2023/04/06 03:00:58;;;;;;;;;30.75;30.00;;;;;-147.17;100.00;48192.97;5011399;28;51432;-53
2023/04/06 03:03:23;;;;;;;;;29.25;27.25;;;;;-147.17;100.00;48194.94;5010911;28;51218;-53
2023/04/06 03:05:49;;;;;;;;;29.25;27.75;;;;;-147.17;100.00;48204.78;5012613;28;52147;-54
2023/04/06 03:08:15;;;;;;;;;38.25;33.75;;;;;-147.17;100.00;48242.16;5013767;28;51109;-54
2023/04/06 03:10:40;;;;;;;;;34.75;31.00;;;;;-147.17;100.00;48257.91;5012338;28;51143;-54
2023/04/06 03:13:06;;;;;;;;;37.25;31.75;;;;;-147.17;100.00;48289.38;5009226;28;51924;-54
2023/04/06 03:15:31;;;;;;;;;29.75;26.00;;;;;-147.17;100.00;48271.66;5005721;28;51061;-53
2023/04/06 03:17:57;;;;;;;;;30.00;28.00;;;;;-147.17;100.00;48257.91;5011449;28;51446;-55
2023/04/06 03:20:22;;;;;;;;;28.00;27.00;;;;;-147.17;100.00;48281.50;5012344;28;51128;-54
2023/04/06 03:22:48;;;;;;;;;30.25;27.00;;;;;-147.17;100.00;48271.66;5010972;28;51117;-55
2023/04/06 03:25:13;;;;;;;;;31.00;27.50;;;;;-147.17;100.00;48273.63;5006498;28;51222;-54
2023/04/06 03:27:39;;;;;;;;;27.50;25.50;;;;;-147.17;100.00;48252.00;5010058;28;51069;-54
2023/04/06 03:30:05;;;;;;;;;26.00;24.25;;;;;-147.17;100.00;48210.69;5012868;28;51309;-54
2023/04/06 03:32:30;;;;;;;;;28.50;26.00;;;;;-147.17;100.00;48159.53;5010619;28;51306;-54
2023/04/06 03:34:56;;;;;;;;;26.75;23.50;;;;;-147.17;100.00;48100.50;5010456;28;51354;-52
2023/04/06 03:37:21;;;;;;;;;24.00;23.00;;;;;-147.17;100.00;48112.31;5013137;28;51112;-54
2023/04/06 03:39:47;;;;;;;;;25.50;25.25;;;;;-147.17;100.00;48076.91;5011813;28;51778;-54
2023/04/06 03:42:12;;;;;;;;;26.75;23.50;;;;;-147.17;100.00;48029.69;5012462;28;52198;-55
2023/04/06 03:44:37;;;;;;;;;26.75;26.00;;;;;-147.17;100.00;47992.28;5012357;28;51124;-54
2023/04/06 03:47:03;;;;;;;;;24.75;24.00;;;;;-147.17;100.00;47931.31;5012130;28;51162;-54
2023/04/06 03:49:28;;;;;;;;;27.00;26.00;;;;;-147.17;100.00;47941.16;5010658;28;50914;-54
2023/04/06 03:51:56;;;;;;;;;24.50;23.25;;;;;-147.17;100.00;47862.44;5011927;28;51822;-54
2023/04/06 03:54:21;;;;;;;;;25.25;23.00;;;;;-147.17;100.00;47868.34;5011802;28;50944;-51
2023/04/06 03:56:46;;;;;;;;;27.25;25.00;;;;;-147.17;100.00;47852.63;5010592;28;52256;-54
2023/04/06 03:59:12;;;;;;;;;18.75;18.75;;;;;-147.17;100.00;47945.06;5011024;28;51280;-51
2023/04/06 04:01:39;;;;;;;;;23.50;22.75;;;;;-147.17;100.00;47968.69;5011155;28;51973;-53
2023/04/06 04:04:04;;;;;;;;;21.25;21.25;;;;;-147.17;100.00;47931.31;5007193;28;51161;-54
2023/04/06 04:06:30;;;;;;;;;26.25;24.00;;;;;-147.17;100.00;47880.16;5009735;28;51249;-54
2023/04/06 04:08:55;;;;;;;;;26.25;24.50;;;;;-147.17;100.00;47862.44;5011068;28;51167;-54
2023/04/06 04:11:20;;;;;;;;;20.00;18.50;;;;;-147.17;100.00;47872.28;5011305;28;51175;-56
2023/04/06 04:13:46;;;;;;;;;24.50;23.50;;;;;-147.17;100.00;47868.34;5010743;28;50984;-52
2023/04/06 04:16:11;;;;;;;;;23.75;21.75;;;;;-147.17;100.00;47848.69;5010320;28;51085;-53
2023/04/06 04:18:36;;;;;;;;;28.25;25.00;;;;;-147.17;100.00;47911.63;5011202;28;51035;-53
2023/04/06 04:21:02;;;;;;;;;25.50;19.75;;;;;-147.17;100.00;47848.69;5011282;28;51046;-52
2023/04/06 04:23:27;;;;;;;;;23.00;21.25;;;;;-147.17;100.00;47943.09;5009976;28;51136;-55
2023/04/06 04:25:52;;;;;;;;;20.25;19.25;;;;;-147.17;100.00;47950.97;5009727;28;51200;-53
2023/04/06 04:28:18;;;;;;;;;25.75;23.75;;;;;-147.17;100.00;47970.66;5011950;28;51190;-51
2023/04/06 04:30:43;;;;;;;;;20.00;19.75;;;;;-147.17;100.00;47893.94;5011752;28;51221;-52
2023/04/06 04:33:08;;;;;;;;;24.00;22.75;;;;;-147.17;100.00;47909.66;5012070;28;51183;-53
2023/04/06 04:35:34;;;;;;;;;21.25;20.50;;;;;-147.17;100.00;47927.38;5010416;28;51200;-53
2023/04/06 04:37:59;;;;;;;;;20.75;20.50;;;;;-147.17;100.00;47954.91;5013037;28;51354;-52
2023/04/06 04:40:25;;;;;;;;;24.25;21.50;;;;;-147.17;100.00;47915.56;5012133;28;52774;-57
2023/04/06 04:42:51;;;;;;;;;26.50;25.25;;;;;-147.17;100.00;47891.97;5014624;28;51044;-53
2023/04/06 04:45:16;;;;;;;;;27.50;25.50;;;;;-147.17;100.00;47880.16;5014781;28;51284;-54
2023/04/06 04:47:41;;;;;;;;;26.00;23.00;;;;;-147.17;100.00;47911.63;5015969;28;50957;-52
2023/04/06 04:50:07;;;;;;;;;22.50;22.50;;;;;-147.17;100.00;47868.34;5014425;28;51874;-54
2023/04/06 04:52:33;;;;;;;;;18.75;18.75;;;;;-147.17;100.00;47834.91;5014446;28;50889;-53
2023/04/06 04:54:58;;;;;;;;;24.00;21.50;;;;;-147.17;100.00;47758.19;5014507;28;51213;-55
2023/04/06 04:57:23;;;;;;;;;23.25;20.25;;;;;-147.17;100.00;47775.88;5014114;28;51220;-52
2023/04/06 04:59:50;;;;;;;;;24.25;24.00;;;;;-147.17;100.00;47789.66;5013415;28;51054;-51
2023/04/06 05:02:16;;;;;;;;;27.50;24.75;;;;;-147.17;100.00;47742.44;5009444;28;51213;-56
2023/04/06 05:04:41;;;;;;;;;29.00;27.00;;;;;-147.17;100.00;47705.06;5014965;28;50993;-50
2023/04/06 05:07:09;;;;;;;;;23.00;21.00;;;;;-147.17;100.00;47649.97;5015290;28;51053;-55
2023/04/06 05:09:34;;;;;;;;;26.75;22.50;;;;;-147.17;100.00;47683.44;5015196;28;51167;-55
2023/04/06 05:12:01;;;;;;;;;26.25;24.75;;;;;-147.17;100.00;47634.25;5011919;28;50988;-52
2023/04/06 05:14:27;;;;;;;;;28.50;25.75;;;;;-147.17;100.00;47630.31;5012605;28;51200;-53
2023/04/06 05:16:53;;;;;;;;;23.00;22.25;;;;;-147.17;100.00;47577.19;5013634;28;51385;-54
2023/04/06 05:19:18;;;;;;;;;24.25;21.00;;;;;-147.17;100.00;47549.66;5002175;28;51822;-54
2023/04/06 05:21:44;;;;;;;;;25.25;24.00;;;;;-147.17;100.00;47510.31;5013015;28;51554;-53
2023/04/06 05:24:09;;;;;;;;;26.75;24.50;;;;;-147.17;100.00;47455.25;5009461;28;50933;-52
2023/04/06 05:26:35;;;;;;;;;26.25;24.50;;;;;-147.17;100.00;47402.13;5015303;28;51323;-52
2023/04/06 05:29:01;;;;;;;;;19.00;19.00;;;;;-147.17;100.00;47329.34;5013281;28;51202;-53
2023/04/06 05:31:26;;;;;;;;;26.25;26.25;;;;;-147.17;100.00;47354.91;5015523;28;51091;-51
2023/04/06 05:33:51;;;;;;;;;22.50;20.50;;;;;-147.17;100.00;47256.56;5014492;28;51501;-52
2023/04/06 05:36:17;;;;;;;;;22.50;22.50;;;;;-147.17;100.00;47191.66;5014307;28;51310;-52
2023/04/06 05:38:42;;;;;;;;;26.00;24.50;;;;;-147.17;100.00;47223.13;5014054;28;51680;-54
2023/04/06 05:41:08;;;;;;;;;22.25;21.25;;;;;-147.17;100.00;47175.91;5014919;28;50969;-53
2023/04/06 05:43:33;;;;;;;;;24.00;21.50;;;;;-147.17;100.00;47002.81;5013017;28;51881;-53
2023/04/06 05:45:59;;;;;;;;;23.00;22.25;;;;;-147.17;100.00;46802.22;5003583;28;50876;-53
2023/04/06 05:48:24;;;;;;;;;22.00;22.00;;;;;-147.17;100.00;46723.53;5012350;28;51154;-55
2023/04/06 05:50:50;;;;;;;;;24.25;22.00;;;;;-147.17;100.00;46593.72;5007556;28;50985;-53
2023/04/06 05:53:16;;;;;;;;;28.00;25.50;;;;;-147.17;100.00;46721.56;5012787;28;51127;-51
2023/04/06 05:55:42;;;;;;;;;24.50;22.50;;;;;-147.17;100.00;46450.16;5008514;28;51059;-52
2023/04/06 05:58:07;;;;;;;;;23.50;22.00;;;;;-147.17;100.00;46491.47;5011492;28;51168;-52
2023/04/06 06:00:33;;;;;;;;;23.00;20.75;;;;;-147.17;100.00;46542.59;5005122;28;51100;-51
2023/04/06 06:02:58;;;;;;;;;21.75;20.25;;;;;-147.17;100.00;46300.72;5000307;28;51204;-51
2023/04/06 06:05:23;;;;;;;;;20.00;19.00;;;;;-147.17;100.00;46227.94;5010642;28;51382;-52
2023/04/06 06:07:49;;;;;;;;;24.25;22.00;;;;;-147.17;100.00;46334.16;5013797;28;51851;-51
2023/04/06 06:10:14;;;;;;;;;21.75;20.00;;;;;-147.17;100.00;46420.66;5013619;28;50925;-55
2023/04/06 06:12:40;;;;;;;;;21.00;18.50;;;;;-147.17;100.00;46334.16;5012101;28;51010;-51
2023/04/06 06:15:06;;;;;;;;;24.25;23.25;;;;;-147.17;100.00;46157.16;5011101;28;51074;-51
2023/04/06 06:17:31;;;;;;;;;22.25;20.50;;;;;-147.17;100.00;45602.66;5012155;28;53730;-59
2023/04/06 06:19:57;;;;;;;;;22.50;20.75;;;;;-147.17;100.00;45453.22;5012597;28;51254;-50
2023/04/06 06:22:22;;;;;;;;;25.50;24.50;;;;;-147.17;100.00;45244.81;5012864;28;51174;-52
2023/04/06 06:24:49;;;;;;;;;24.50;23.50;;;;;-147.17;100.00;44918.47;5009678;28;51227;-52
2023/04/06 06:27:14;;;;;;;;;26.00;23.25;;;;;-147.17;100.00;44560.72;5013061;28;52062;-53
2023/04/06 06:29:40;;;;;;;;;26.25;24.00;;;;;-147.17;100.00;44124.34;5009778;28;51108;-54
2023/04/06 06:32:05;;;;;;;;;27.75;25.25;;;;;-147.17;100.00;44187.25;5012753;28;51230;-53
2023/04/06 06:34:31;;;;;;;;;27.00;27.00;;;;;-147.17;100.00;43868.84;5011587;28;50984;-54
2023/04/06 06:36:56;;;;;;;;;29.75;27.75;;;;;-147.17;100.00;43862.97;5013550;28;52168;-52
2023/04/06 06:39:21;;;;;;;;;23.75;22.75;;;;;-147.17;100.00;43141.75;5013589;28;51062;-55
2023/04/06 06:41:47;;;;;;;;;25.00;23.75;;;;;-147.17;100.00;42589.63;5013653;28;50935;-54
2023/04/06 06:44:12;;;;;;;;;28.50;26.75;;;;;-147.17;100.00;42746.81;5013630;28;51116;-53
2023/04/06 06:46:38;;;;;;;;;24.75;24.75;;;;;-147.17;100.00;42430.50;5013665;28;51598;-52
2023/04/06 06:49:03;;;;;;;;;26.50;25.00;;;;;-147.17;100.00;42505.16;5012820;28;51040;-55
2023/04/06 06:51:29;;;;;;;;;30.50;29.25;;;;;-147.17;100.00;42175.09;4998660;28;51104;-53
2023/04/06 06:53:54;;;;;;;;;25.25;25.00;;;;;-147.17;100.00;43059.22;5013028;28;51040;-51
2023/04/06 06:56:22;;;;;;;;;26.00;24.50;;;;;-147.17;100.00;42803.78;5013258;28;51544;-54
2023/04/06 06:58:47;;;;;;;;;33.75;29.00;;;;;-147.17;100.00;42544.44;5013086;28;51173;-51
2023/04/06 07:01:13;;;;;;;;;30.75;27.00;;;;;-147.17;100.00;41819.56;5009851;28;51094;-53
2023/04/06 07:03:38;;;;;;;;;23.25;23.00;;;;;-147.17;100.00;40065.81;5008536;28;51173;-55
2023/04/06 07:06:03;;;;;;;;;26.50;25.25;;;;;-147.17;100.00;40383.91;5013220;28;51976;-52
2023/04/06 07:08:29;;;;;;;;;25.50;24.25;;;;;-147.17;100.00;40815.91;5008492;28;51172;-55
2023/04/06 07:10:57;;;;;;;;;26.75;25.75;;;;;-147.17;100.00;40482.09;5012057;28;51325;-53
2023/04/06 07:13:23;;;;;;;;;22.75;20.25;;;;;-147.17;100.00;38962.53;5012941;28;51245;-55
2023/04/06 07:15:49;;;;;;;;;22.00;21.75;;;;;-147.17;100.00;39166.69;5012817;28;52841;-56
2023/04/06 07:18:16;;;;;;;;;22.50;21.50;;;;;-147.17;100.00;38336.41;5013282;28;50984;-55
2023/04/06 07:20:41;;;;;;;;;22.25;21.75;;;;;-147.17;100.00;39370.81;5011534;28;51139;-56
2023/04/06 07:23:07;;;;;;;;;16.75;15.25;;;;;-147.17;100.00;39268.75;5013240;28;50995;-56
2023/04/06 07:25:32;;;;;;;;;21.25;20.00;;;;;-147.17;100.00;37055.06;5012350;28;51406;-55
2023/04/06 07:27:57;;;;;;;;;20.50;17.50;;;;;-147.17;100.00;36172.31;5013080;28;51150;-56
2023/04/06 07:30:26;;;;;;;;;21.50;21.25;;;;;-147.17;100.00;36368.47;5012972;28;51154;-55
2023/04/06 07:32:51;;;;;;;;;24.75;21.75;;;;;-147.17;100.00;33985.88;5013062;28;50925;-55
2023/04/06 07:35:16;;;;;;;;;22.75;21.75;;;;;-147.17;100.00;33981.94;5012490;28;52209;-56
2023/04/06 07:37:42;;;;;;;;;23.25;23.00;;;;;-147.17;100.00;31193.31;5013008;28;51014;-54
2023/04/06 07:40:08;;;;;;;;;21.75;19.25;;;;;-147.17;100.00;27805.72;5012490;28;51009;-55
2023/04/06 07:42:33;;;;;;;;;25.50;23.25;;;;;-147.17;100.00;25676.75;5009482;28;51290;-55
2023/04/06 07:44:59;;;;;;;;;31.25;27.50;;;;;-147.17;100.00;19921.84;5009956;28;51997;-54
2023/04/06 07:47:24;;;;;;;;;26.00;23.00;;;;;-147.17;100.00;21422.31;5012845;28;51171;-54
2023/04/06 07:49:50;;;;;;;;;25.75;24.00;;;;;-147.17;100.00;20421.94;5013240;28;51098;-54
2023/04/06 07:52:15;;;;;;;;;22.00;20.25;;;;;-147.17;100.00;13925.81;5012588;28;51096;-56
2023/04/06 07:54:41;;;;;;;;;25.50;23.75;;;;;-147.17;100.00;9434.84;5011376;28;52229;-54
2023/04/06 07:57:07;;;;;;;;;27.00;26.50;;;;;-147.17;100.00;6194.59;5012244;28;51134;-55
2023/04/06 07:59:32;;;;;;;;;22.75;22.00;;;;;-147.17;100.00;6942.09;5005619;28;51268;-55
2023/04/06 08:01:59;;;;;;;;;30.75;26.50;;;;;-147.17;100.00;4949.06;5011155;28;51161;-55
2023/04/06 08:04:25;;;;;;;;;24.25;22.50;;;;;-147.17;100.00;4450.97;5009727;28;51241;-58
2023/04/06 08:06:50;;;;;;;;;23.25;23.25;;;;;-147.17;100.00;2708.13;5011848;28;50937;-55
2023/04/06 08:09:15;;;;;;;;;25.00;23.25;;;;;-147.17;100.00;1961.44;5011048;28;51767;-55
2023/04/06 08:11:41;;;;;;;;;31.00;27.75;;;;;-147.17;100.00;-2018.47;5011693;28;50868;-55
2023/04/06 08:14:06;;;;;;;;;30.50;28.00;;;;;-147.17;100.00;-775.19;5011340;28;51167;-55
2023/04/06 08:16:32;;;;;;;;;28.00;25.00;;;;;-147.17;100.00;-526.47;5011660;28;51186;-56
2023/04/06 08:18:57;;;;;;;;;23.75;22.00;;;;;-147.17;100.00;-2018.47;5010070;28;51111;-55
2023/04/06 08:21:22;;;;;;;;;27.00;26.25;;;;;-147.17;100.00;-3012.78;5012489;28;51111;-55
2023/04/06 08:23:48;;;;;;;;;31.75;27.00;;;;;-147.17;100.00;-4006.88;5011843;28;52363;-55
2023/04/06 08:26:13;;;;;;;;;25.75;25.00;;;;;-147.17;100.00;-3758.38;5008299;28;51083;-55
2023/04/06 08:28:38;;;;;;;;;27.25;26.50;;;;;-147.17;100.00;-3509.84;5011540;28;51092;-55
2023/04/06 08:31:05;;;;;;;;;28.50;27.00;;;;;-147.17;100.00;-3261.34;5011829;28;51306;-54
2023/04/06 08:33:31;;;;;;;;;26.25;24.75;;;;;-147.17;100.00;-1272.53;5009304;28;51245;-56
2023/04/06 08:35:56;;;;;;;;;25.75;24.50;;;;;-147.17;100.00;-1272.53;5009462;28;51301;-56
2023/04/06 08:38:21;;;;;;;;;24.50;23.50;;;;;-147.17;100.00;-1521.19;5010657;28;51241;-55
2023/04/06 08:40:49;;;;;;;;;29.50;28.50;;;;;-147.17;100.00;-1023.88;5011633;28;51131;-55
2023/04/06 08:43:19;;;;;;;;;28.00;26.00;;;;;-147.17;100.00;-277.75;5011626;28;52985;-55
2023/04/06 08:45:45;;;;;;;;;26.75;25.50;;;;;-147.17;100.00;-277.75;5010683;28;50960;-55
2023/04/06 08:48:11;;;;;;;;;29.50;28.25;;;;;-147.17;100.00;-1272.53;5008751;28;51231;-56
2023/04/06 08:50:38;;;;;;;;;27.25;26.25;;;;;-147.17;100.00;-1023.88;5010449;28;51340;-55
2023/04/06 08:53:06;;;;;;;;;80.75;70.50;;;;;-147.17;100.00;-1769.84;4998983;28;54108;-56
2023/04/06 08:55:31;;;;;;;;;33.00;30.50;;;;;-147.17;100.00;-1272.53;5009412;28;50924;-57
2023/04/06 08:57:58;;;;;;;;;22.00;21.25;;;;;-147.17;100.00;-1272.53;5009880;28;51237;-56
2023/04/06 09:00:25;;;;;;;;;36.25;31.50;;;;;-147.17;100.00;-1521.19;5011128;28;51020;-58
2023/04/06 09:02:55;;;;;;;;;26.75;25.00;;;;;-147.17;100.00;-2018.47;5010388;28;52100;-56
2023/04/06 09:05:21;;;;;;;;;34.75;30.75;;;;;-147.17;100.00;-3758.38;5010455;28;50936;-55
2023/04/06 09:07:46;;;;;;;;;31.25;29.75;;;;;-147.17;100.00;-3758.38;4992439;28;51148;-55
2023/04/06 09:10:12;;;;;;;;;33.00;29.00;;;;;-147.17;100.00;-3758.38;5011713;28;51178;-56
2023/04/06 09:12:37;;;;;;;;;40.00;33.50;;;;;-147.17;100.00;-3758.38;5010206;28;51827;-57
2023/04/06 09:15:03;;;;;;;;;31.25;29.75;;;;;-147.17;100.00;-4503.81;5010386;28;50870;-54
2023/04/06 09:17:32;;;;;;;;;32.50;30.25;;;;;-147.17;100.00;-4503.81;5009285;28;50971;-55
2023/04/06 09:19:59;;;;;;;;;33.00;30.25;;;;;-147.17;100.00;-5000.69;5010879;28;51041;-57
2023/04/06 09:22:25;;;;;;;;;25.50;25.50;;;;;-147.17;100.00;-5994.25;5010386;28;52760;-55
2023/04/06 09:24:53;;;;;;;;;25.75;24.50;;;;;-147.17;100.00;-7484.09;5006093;28;51425;-55
2023/04/06 09:27:30;;;;;;;;;28.25;27.75;;;;;-147.17;100.00;-8228.81;5011880;28;50922;-55
2023/04/06 09:30:13;;;;;;;;;30.75;27.75;;;;;-147.17;100.00;-9469.69;5015233;28;51174;-55
2023/04/06 09:32:49;;;;;;;;;27.75;26.00;;;;;-147.17;100.00;-12446.13;5014316;28;52156;-56
2023/04/06 09:35:15;;;;;;;;;27.50;26.50;;;;;-147.17;100.00;-12446.13;5013059;28;50899;-56
2023/04/06 09:37:42;;;;;;;;;24.75;24.25;;;;;-147.17;100.00;-12694.06;5013402;28;51142;-55
2023/04/06 09:40:08;;;;;;;;;30.00;28.75;;;;;-147.17;100.00;-12941.97;5013925;28;51164;-56
2023/04/06 09:42:34;;;;;;;;;24.00;23.00;;;;;-147.17;100.00;-13933.50;5013185;28;53261;-55
2023/04/06 09:45:01;;;;;;;;;30.50;29.25;;;;;-147.17;100.00;-13189.88;5007285;28;52692;-55
2023/04/06 09:47:26;;;;;;;;;26.25;25.75;;;;;-147.17;100.00;-13685.63;5013240;28;51268;-55
2023/04/06 09:49:57;;;;;;;;;26.50;26.25;;;;;-147.17;100.00;-14181.31;5013176;28;52630;-56
2023/04/06 09:52:31;;;;;;;;;32.00;30.75;;;;;-147.17;100.00;-13933.50;5005560;28;51730;-54
2023/04/06 09:55:00;;;;;;;;;23.75;22.00;;;;;-147.17;100.00;-14676.94;5010531;28;51293;-55
2023/04/06 09:57:30;;;;;;;;;25.75;23.50;;;;;-147.17;100.00;-14676.94;5012834;28;52445;-55
2023/04/06 10:00:11;;;;;;;;;22.75;21.50;;;;;-147.17;100.00;-15172.50;5013035;28;51295;-57
2023/04/06 10:03:04;;;;;;;;;25.25;22.75;;;;;-147.17;100.00;-15668.00;5013802;28;51352;-56
2023/04/06 10:05:52;;;;;;;;;23.75;22.75;;;;;-147.17;100.00;-15668.00;5014260;28;51088;-54
2023/04/06 10:08:19;;;;;;;;;19.25;18.00;;;;;-147.17;100.00;-15915.72;5014539;28;51066;-56
2023/04/06 10:10:44;;;;;;;;;21.75;21.75;;;;;-147.17;100.00;-15917.19;5013769;28;51046;-60
2023/04/06 10:13:11;;;;;;;;;21.25;19.00;;;;;-147.17;100.00;-15917.19;5013087;28;51036;-54
2023/04/06 10:15:38;;;;;;;;;18.00;17.75;;;;;-147.17;100.00;-15917.19;5014077;28;51106;-56
2023/04/06 10:18:04;;;;;;;;;20.25;18.25;;;;;-147.17;100.00;-15917.19;5014223;28;51122;-55
2023/04/06 10:20:29;;;;;;;;;17.00;16.75;;;;;-147.17;100.00;-15917.19;5014399;28;51070;-56
2023/04/06 10:23:03;;;;;;;;;18.00;15.75;;;;;-147.17;100.00;-15917.19;5014168;28;51672;-55
2023/04/06 10:25:30;;;;;;;;;17.00;17.00;;;;;-147.17;100.00;-15917.19;5013942;28;51043;-54
2023/04/06 10:28:05;;;;;;;;;18.50;17.00;;;;;-147.17;100.00;-15917.19;5014315;28;50922;-56
2023/04/06 10:30:32;;;;;;;;;20.50;17.75;;;;;-147.17;100.00;-15917.19;5012630;28;51248;-55
2023/04/06 10:32:57;;;;;;;;;18.50;17.00;;;;;-147.17;100.00;-15917.19;5013966;28;51162;-55
2023/04/06 10:35:23;;;;;;;;;15.75;14.00;;;;;-147.17;100.00;-15917.19;5008261;28;51209;-57
2023/04/06 10:38:00;;;;;;;;;27.25;25.50;;;;;-147.17;100.00;-15917.19;5012385;28;51117;-55
2023/04/06 10:40:26;;;;;;;;;19.00;18.25;;;;;-147.17;100.00;-15917.19;5011307;28;51143;-54
2023/04/06 10:42:53;;;;;;;;;20.25;18.25;;;;;-147.17;100.00;-15917.19;5005394;28;52037;-56
2023/04/06 10:45:24;;;;;;;;;15.25;14.75;;;;;-147.17;100.00;-15917.19;5012473;28;51087;-55
2023/04/06 10:47:53;;;;;;;;;18.75;17.25;;;;;-147.17;100.00;-15917.19;5011237;28;51181;-55
2023/04/06 10:50:19;;;;;;;;;31.25;28.75;;;;;-147.17;100.00;-15917.19;5008296;28;51189;-54